Time;durP1;ratioP1;P1;durP2;ratioP2;P2;SDS_P1;SDS_P2;PMS_P1;PMS_P2;Temp;Humidity;BMP_temperature;BMP_pressure;BME280_temperature;BME280_humidity;BME280_pressure;Samples;Min_cycle;Max_cycle;Signal;HPM_P1;HPM_P2
2022/06/25 00:01:13;;;;;;;1.90;1.80;;;18.90;95.20;;;;;;941423;150;27345;-75
2022/06/25 00:03:40;;;;;;;2.58;2.10;;;18.90;94.90;;;;;;927704;152;27389;-75
2022/06/25 00:06:07;;;;;;;2.58;1.90;;;18.90;95.00;;;;;;941175;149;27267;-74
2022/06/25 00:08:33;;;;;;;2.08;1.95;;;18.90;95.00;;;;;;940778;150;27416;-76
2022/06/25 00:11:00;;;;;;;1.87;1.77;;;18.90;95.00;;;;;;927824;152;27386;-74
2022/06/25 00:13:26;;;;;;;2.12;2.00;;;18.90;95.10;;;;;;942487;150;27361;-75
2022/06/25 00:15:53;;;;;;;2.22;2.12;;;18.90;95.10;;;;;;923696;153;27296;-75
2022/06/25 00:18:20;;;;;;;2.10;1.90;;;19.00;95.20;;;;;;924004;153;27384;-74
2022/06/25 00:20:46;;;;;;;2.10;1.60;;;19.00;95.20;;;;;;939325;149;27487;-74
2022/06/25 00:23:13;;;;;;;2.58;2.00;;;19.00;95.10;;;;;;919008;153;27434;-75
2022/06/25 00:25:39;;;;;;;1.98;1.87;;;19.00;95.10;;;;;;935054;150;27265;-74
2022/06/25 00:28:06;;;;;;;2.00;1.90;;;19.00;95.00;;;;;;935764;151;27340;-74
2022/06/25 00:30:32;;;;;;;1.90;1.80;;;19.00;95.00;;;;;;935935;149;27386;-74
2022/06/25 00:32:59;;;;;;;2.10;1.82;;;18.90;95.00;;;;;;935829;150;27768;-75
2022/06/25 00:35:26;;;;;;;1.95;1.85;;;18.90;95.00;;;;;;930998;151;27367;-75
2022/06/25 00:37:52;;;;;;;3.80;1.80;;;18.90;95.00;;;;;;936551;151;27299;-75
2022/06/25 00:40:19;;;;;;;2.02;1.80;;;18.90;95.10;;;;;;936439;151;27353;-75
2022/06/25 00:42:45;;;;;;;2.58;2.00;;;18.80;95.10;;;;;;935924;149;27370;-74
2022/06/25 00:45:12;;;;;;;2.00;1.90;;;18.80;95.20;;;;;;937443;150;28025;-74
2022/06/25 00:47:39;;;;;;;2.33;2.12;;;18.80;95.20;;;;;;916655;153;28321;-75
2022/06/25 00:50:05;;;;;;;1.95;1.82;;;18.80;95.30;;;;;;920110;154;27446;-75
2022/06/25 00:52:32;;;;;;;2.10;1.90;;;18.70;95.30;;;;;;934729;151;27459;-75
2022/06/25 00:54:59;;;;;;;2.35;1.95;;;18.70;95.40;;;;;;931164;151;27385;-75
2022/06/25 00:57:25;;;;;;;2.17;2.08;;;18.70;95.40;;;;;;930103;151;27331;-75
2022/06/25 00:59:52;;;;;;;2.20;1.90;;;18.70;95.50;;;;;;930937;151;27441;-74
2022/06/25 01:02:20;;;;;;;1.82;1.72;;;18.60;95.60;;;;;;931045;151;27367;-74
2022/06/25 01:04:45;;;;;;;2.30;2.10;;;18.60;95.50;;;;;;932590;151;27291;-74
2022/06/25 01:07:11;;;;;;;3.03;2.13;;;18.60;95.60;;;;;;932445;151;27484;-75
2022/06/25 01:09:39;;;;;;;2.20;2.00;;;18.60;95.70;;;;;;933432;151;27511;-75
2022/06/25 01:12:05;;;;;;;2.27;2.10;;;18.50;95.80;;;;;;932881;151;27343;-75
2022/06/25 01:14:31;;;;;;;2.10;1.90;;;18.50;95.90;;;;;;933619;150;27561;-75
2022/06/25 01:16:58;;;;;;;2.57;2.37;;;18.50;96.00;;;;;;933312;150;27816;-74
2022/06/25 01:19:24;;;;;;;2.20;2.10;;;18.40;96.00;;;;;;934916;150;27366;-75
2022/06/25 01:21:51;;;;;;;2.17;1.80;;;18.40;96.10;;;;;;932707;151;27378;-75
2022/06/25 01:24:18;;;;;;;2.10;1.90;;;18.40;96.10;;;;;;933351;151;27509;-75
2022/06/25 01:26:44;;;;;;;2.85;2.20;;;18.40;96.30;;;;;;931508;151;27333;-75
2022/06/25 01:29:11;;;;;;;2.45;1.90;;;18.30;96.40;;;;;;932490;151;27310;-75
2022/06/25 01:31:37;;;;;;;2.08;1.87;;;18.30;96.40;;;;;;931989;151;27372;-75
2022/06/25 01:34:04;;;;;;;2.05;1.85;;;18.30;96.50;;;;;;932347;151;27360;-75
2022/06/25 01:36:31;;;;;;;3.80;1.90;;;18.20;96.50;;;;;;932923;151;27422;-75
2022/06/25 01:38:57;;;;;;;2.27;2.12;;;18.20;96.50;;;;;;932678;150;27442;-75
2022/06/25 01:41:24;;;;;;;2.10;1.87;;;18.20;96.40;;;;;;932967;150;27473;-75
2022/06/25 01:43:50;;;;;;;3.03;2.00;;;18.20;96.70;;;;;;932652;151;27450;-75
2022/06/25 01:46:17;;;;;;;3.72;2.22;;;18.10;96.70;;;;;;933608;151;27441;-75
2022/06/25 01:48:44;;;;;;;1.67;1.65;;;18.10;96.90;;;;;;932970;151;27316;-75
2022/06/25 01:51:10;;;;;;;1.85;1.75;;;18.10;96.90;;;;;;933243;151;27349;-76
2022/06/25 01:53:37;;;;;;;1.77;1.60;;;18.00;96.90;;;;;;931967;151;27305;-74
2022/06/25 01:56:03;;;;;;;1.70;1.60;;;18.00;97.00;;;;;;933191;151;27376;-74
2022/06/25 01:58:30;;;;;;;2.00;1.80;;;18.00;97.10;;;;;;933724;151;27352;-75
2022/06/25 02:00:56;;;;;;;3.77;1.73;;;18.00;97.20;;;;;;932171;151;27449;-74
2022/06/25 02:03:23;;;;;;;1.87;1.77;;;18.00;97.20;;;;;;933120;151;27320;-76
2022/06/25 02:05:58;;;;;;;2.40;1.85;;;17.90;97.20;;;;;;931416;151;27455;-74
2022/06/25 02:08:25;;;;;;;1.70;1.60;;;17.90;97.20;;;;;;931649;151;27437;-74
2022/06/25 02:10:52;;;;;;;2.10;1.67;;;17.90;97.20;;;;;;933620;150;27336;-75
2022/06/25 02:13:18;;;;;;;1.90;1.70;;;17.90;97.30;;;;;;932582;151;27399;-75
2022/06/25 02:15:45;;;;;;;2.40;1.90;;;17.80;97.40;;;;;;934011;151;27437;-74
2022/06/25 02:18:11;;;;;;;2.00;1.90;;;17.80;97.60;;;;;;931814;151;27869;-75
2022/06/25 02:20:39;;;;;;;1.77;1.67;;;17.80;97.70;;;;;;933988;151;27788;-75
2022/06/25 02:23:04;;;;;;;1.80;1.70;;;17.80;97.80;;;;;;932860;151;27458;-74
2022/06/25 02:25:31;;;;;;;2.27;2.00;;;17.80;97.80;;;;;;932254;151;27470;-75
2022/06/25 02:27:58;;;;;;;2.07;1.87;;;17.80;98.00;;;;;;933070;151;27423;-74
2022/06/25 02:30:24;;;;;;;1.87;1.77;;;17.70;98.00;;;;;;930561;151;27515;-74
2022/06/25 02:32:51;;;;;;;1.80;1.70;;;17.70;98.10;;;;;;932366;151;27379;-75
2022/06/25 02:35:17;;;;;;;5.40;1.80;;;17.70;98.20;;;;;;932030;150;27361;-74
2022/06/25 02:37:44;;;;;;;1.80;1.53;;;17.70;98.30;;;;;;931831;151;27344;-74
2022/06/25 02:40:11;;;;;;;2.33;2.13;;;17.70;98.40;;;;;;931370;150;27364;-74
2022/06/25 02:42:37;;;;;;;3.63;2.00;;;17.70;98.60;;;;;;930890;151;27399;-75
2022/06/25 02:45:04;;;;;;;1.77;1.67;;;17.70;98.70;;;;;;931455;151;27868;-75
2022/06/25 02:47:31;;;;;;;1.90;1.80;;;17.70;98.70;;;;;;932110;151;27368;-75
2022/06/25 02:49:57;;;;;;;2.60;2.00;;;17.70;98.80;;;;;;932748;150;27805;-74
2022/06/25 02:52:24;;;;;;;1.70;1.60;;;17.70;98.90;;;;;;932438;151;27319;-74
2022/06/25 02:54:50;;;;;;;1.90;1.80;;;17.70;98.90;;;;;;934075;151;27482;-75
2022/06/25 03:00:01;;;;;;;3.80;2.40;;;17.60;98.90;;;;;;932894;151;27439;-74
2022/06/25 03:02:28;;;;;;;2.60;2.40;;;17.70;98.80;;;;;;931796;150;27437;-74
2022/06/25 03:04:55;;;;;;;2.60;2.40;;;17.60;98.90;;;;;;934716;151;27340;-74
2022/06/25 03:07:21;;;;;;;2.47;2.27;;;17.60;98.90;;;;;;933197;151;27477;-75
2022/06/25 03:09:48;;;;;;;2.47;2.20;;;17.60;99.10;;;;;;931597;149;27568;-74
2022/06/25 03:12:14;;;;;;;2.50;2.30;;;17.60;99.10;;;;;;933852;151;27334;-75
2022/06/25 03:14:41;;;;;;;2.50;2.30;;;17.60;99.10;;;;;;932005;151;27742;-75
2022/06/25 03:17:08;;;;;;;2.70;2.22;;;17.60;98.90;;;;;;932481;151;27346;-74
2022/06/25 03:19:34;;;;;;;2.80;2.60;;;17.60;99.30;;;;;;931428;151;27467;-74
2022/06/25 03:22:01;;;;;;;3.37;2.60;;;17.60;99.30;;;;;;933238;150;27340;-74
2022/06/25 03:24:27;;;;;;;2.40;2.30;;;17.60;99.40;;;;;;932382;151;27456;-74
2022/06/25 03:26:54;;;;;;;3.05;2.58;;;17.60;99.40;;;;;;930582;150;27383;-75
2022/06/25 03:29:20;;;;;;;2.77;2.43;;;17.50;99.50;;;;;;933764;151;27406;-74
2022/06/25 03:31:48;;;;;;;3.27;2.10;;;17.50;99.50;;;;;;932919;151;27456;-75
2022/06/25 03:34:14;;;;;;;3.00;2.63;;;17.50;99.60;;;;;;933923;151;27649;-74
2022/06/25 03:36:40;;;;;;;2.27;2.07;;;17.50;99.60;;;;;;932293;151;27306;-74
2022/06/25 03:39:07;;;;;;;2.70;2.50;;;17.50;99.80;;;;;;932060;151;27344;-74
2022/06/25 03:41:35;;;;;;;2.80;2.43;;;17.50;99.80;;;;;;931289;151;27346;-74
2022/06/25 03:44:00;;;;;;;2.67;2.50;;;17.50;99.60;;;;;;931373;151;27386;-75
2022/06/25 03:46:27;;;;;;;2.40;2.30;;;17.50;99.90;;;;;;930972;151;27367;-75
2022/06/25 03:48:53;;;;;;;2.87;2.63;;;17.50;99.90;;;;;;932188;151;27373;-75
2022/06/25 03:51:20;;;;;;;2.55;2.45;;;17.50;99.90;;;;;;931289;151;27288;-75
2022/06/25 03:53:46;;;;;;;2.67;2.57;;;17.50;99.90;;;;;;930885;151;27377;-74
2022/06/25 03:56:13;;;;;;;3.58;2.98;;;17.50;99.90;;;;;;931502;150;27446;-73
2022/06/25 03:58:40;;;;;;;4.67;2.33;;;17.50;99.90;;;;;;933543;151;27402;-73
2022/06/25 04:01:06;;;;;;;2.83;2.62;;;17.50;99.90;;;;;;932313;151;27445;-73
2022/06/25 04:03:33;;;;;;;3.15;2.70;;;17.50;99.90;;;;;;932545;151;27463;-72
2022/06/25 04:05:59;;;;;;;3.60;2.70;;;17.60;99.90;;;;;;932673;151;27383;-74
2022/06/25 04:08:26;;;;;;;3.00;2.80;;;17.60;99.90;;;;;;933884;150;27451;-73
2022/06/25 04:10:52;;;;;;;3.40;2.73;;;17.60;99.90;;;;;;932023;151;27356;-73
2022/06/25 04:13:19;;;;;;;3.23;2.73;;;17.60;99.90;;;;;;933892;151;27488;-73
2022/06/25 04:15:46;;;;;;;2.67;2.57;;;17.60;99.90;;;;;;934921;151;27341;-73
2022/06/25 04:18:12;;;;;;;5.47;2.83;;;17.70;99.90;;;;;;933696;151;27495;-74
2022/06/25 04:20:39;;;;;;;2.80;2.63;;;17.70;99.90;;;;;;933981;151;27765;-73
2022/06/25 04:23:05;;;;;;;2.87;2.62;;;17.70;99.90;;;;;;933900;151;27452;-73
2022/06/25 04:25:32;;;;;;;3.22;3.02;;;17.80;99.90;;;;;;931471;151;27354;-73
2022/06/25 04:30:43;;;;;;;2.83;2.50;;;18.00;99.90;;;;;;932554;151;27402;-74
2022/06/25 04:33:10;;;;;;;4.33;2.62;;;18.10;99.90;;;;;;932952;151;27282;-73
2022/06/25 04:35:37;;;;;;;2.35;2.25;;;18.30;99.90;;;;;;932570;151;27293;-73
2022/06/25 04:38:03;;;;;;;3.43;2.57;;;18.40;99.90;;;;;;933888;151;27324;-73
2022/06/25 04:40:30;;;;;;;2.40;2.30;;;18.60;99.90;;;;;;931839;151;27349;-73
2022/06/25 04:42:56;;;;;;;2.90;2.70;;;18.70;99.90;;;;;;933407;151;27475;-74
2022/06/25 04:45:23;;;;;;;2.90;2.30;;;18.80;99.90;;;;;;932574;151;27424;-74
2022/06/25 04:47:49;;;;;;;2.40;2.20;;;19.00;99.90;;;;;;933865;151;27840;-73
2022/06/25 04:50:16;;;;;;;2.37;2.20;;;19.20;99.90;;;;;;933125;151;27952;-73
2022/06/25 04:52:43;;;;;;;3.45;2.50;;;19.40;99.90;;;;;;931507;151;27525;-73
2022/06/25 04:55:09;;;;;;;2.33;2.12;;;19.70;99.90;;;;;;931049;151;27458;-73
2022/06/25 04:57:36;;;;;;;2.33;2.12;;;20.00;99.90;;;;;;931677;151;27321;-73
2022/06/25 05:00:03;;;;;;;2.22;2.12;;;20.30;99.90;;;;;;930945;151;27398;-74
2022/06/25 05:02:29;;;;;;;2.00;1.90;;;20.70;99.90;;;;;;931481;151;27414;-74
2022/06/25 05:04:56;;;;;;;2.12;1.92;;;21.20;99.90;;;;;;931346;151;27799;-74
2022/06/25 05:07:22;;;;;;;2.92;2.08;;;21.70;99.90;;;;;;931584;151;27331;-74
2022/06/25 05:09:49;;;;;;;3.22;2.30;;;22.20;99.90;;;;;;933476;151;27487;-73
2022/06/25 05:13:11;;;;;;;2.80;2.05;;;22.50;99.90;;;;;;932573;151;27315;-74
2022/06/25 05:14:42;;;;;;;2.17;1.92;;;22.80;98.70;;;;;;929556;151;27472;-73
2022/06/25 05:17:09;;;;;;;2.00;1.90;;;22.90;97.10;;;;;;932620;151;27484;-73
2022/06/25 05:19:35;;;;;;;2.35;1.80;;;23.10;95.70;;;;;;935978;151;27442;-74
2022/06/25 05:22:02;;;;;;;3.25;1.85;;;23.10;95.00;;;;;;936503;151;27359;-74
2022/06/25 05:24:28;;;;;;;1.37;1.37;;;23.10;94.70;;;;;;936703;150;27284;-73
2022/06/25 05:26:55;;;;;;;1.82;1.72;;;23.10;94.40;;;;;;936947;150;27460;-73
2022/06/25 05:29:22;;;;;;;1.80;1.70;;;23.10;94.80;;;;;;936558;150;27386;-73
2022/06/25 05:31:49;;;;;;;2.90;1.50;;;23.10;95.00;;;;;;938436;151;27373;-74
2022/06/25 05:34:15;;;;;;;5.17;1.75;;;23.20;94.80;;;;;;935686;151;27283;-74
2022/06/25 05:36:43;;;;;;;2.00;1.90;;;23.20;94.70;;;;;;934992;151;27420;-74
2022/06/25 05:39:08;;;;;;;2.90;1.60;;;23.30;94.60;;;;;;935826;151;27382;-74
2022/06/25 05:41:34;;;;;;;1.70;1.60;;;23.40;94.30;;;;;;935941;151;27499;-74
2022/06/25 05:44:01;;;;;;;3.15;2.17;;;23.50;94.00;;;;;;936204;151;27418;-74
2022/06/25 05:46:28;;;;;;;1.80;1.70;;;23.50;93.80;;;;;;937449;150;27279;-74
2022/06/25 05:48:54;;;;;;;2.15;1.85;;;23.60;93.70;;;;;;936706;151;27357;-74
2022/06/25 05:51:21;;;;;;;1.95;1.77;;;23.60;93.20;;;;;;937340;150;27436;-73
2022/06/25 05:53:47;;;;;;;2.00;1.90;;;23.70;93.30;;;;;;937895;150;27381;-74
2022/06/25 05:56:14;;;;;;;2.30;1.90;;;23.80;93.50;;;;;;936120;151;28554;-75
2022/06/25 05:58:41;;;;;;;4.28;1.92;;;23.90;93.40;;;;;;937648;151;27419;-73
2022/06/25 06:01:07;;;;;;;2.60;1.80;;;23.90;93.20;;;;;;937426;150;27422;-74
2022/06/25 06:03:34;;;;;;;1.67;1.57;;;24.10;93.10;;;;;;937051;150;27384;-74
2022/06/25 06:06:00;;;;;;;1.67;1.55;;;24.20;92.70;;;;;;937595;151;27355;-74
2022/06/25 06:08:27;;;;;;;1.72;1.62;;;24.30;93.00;;;;;;936229;149;27390;-74
2022/06/25 06:10:54;;;;;;;1.90;1.62;;;24.50;92.70;;;;;;937548;150;27435;-74
2022/06/25 06:13:20;;;;;;;2.77;1.57;;;24.60;92.20;;;;;;935959;151;27379;-74
2022/06/25 06:15:47;;;;;;;2.95;1.60;;;24.70;91.60;;;;;;937763;151;27371;-75
2022/06/25 06:18:13;;;;;;;3.85;1.52;;;24.80;91.10;;;;;;936053;151;27477;-74
2022/06/25 06:20:40;;;;;;;1.50;1.40;;;24.90;90.50;;;;;;936486;151;27350;-74
2022/06/25 06:23:06;;;;;;;2.12;1.80;;;25.00;90.60;;;;;;937082;150;27280;-74
2022/06/25 06:25:33;;;;;;;2.30;1.60;;;25.10;90.30;;;;;;936519;150;27355;-74
2022/06/25 06:28:00;;;;;;;1.70;1.60;;;25.20;90.00;;;;;;937995;151;27430;-74
2022/06/25 06:30:26;;;;;;;3.10;1.67;;;25.40;89.90;;;;;;936734;151;28349;-74
2022/06/25 06:32:53;;;;;;;2.47;1.87;;;25.60;89.90;;;;;;936317;151;27288;-75
2022/06/25 06:35:20;;;;;;;1.87;1.77;;;25.80;90.70;;;;;;936901;151;27353;-74
2022/06/25 06:37:46;;;;;;;1.57;1.47;;;26.10;91.00;;;;;;936871;151;27315;-74
2022/06/25 06:40:13;;;;;;;2.00;1.90;;;26.50;90.60;;;;;;937065;151;27386;-75
2022/06/25 06:42:39;;;;;;;1.95;1.62;;;27.00;90.10;;;;;;935888;151;27347;-75
2022/06/25 06:45:06;;;;;;;1.65;1.55;;;27.50;87.10;;;;;;937120;151;27436;-75
2022/06/25 06:47:32;;;;;;;2.35;1.80;;;27.80;84.10;;;;;;936852;151;27379;-75
2022/06/25 06:49:59;;;;;;;2.10;2.00;;;28.20;82.80;;;;;;936438;151;27352;-75
2022/06/25 06:52:26;;;;;;;2.20;2.10;;;28.50;82.00;;;;;;936693;151;27338;-74
2022/06/25 06:54:52;;;;;;;2.20;1.98;;;28.90;79.50;;;;;;936441;151;27354;-75
2022/06/25 06:57:19;;;;;;;2.40;2.20;;;29.20;77.60;;;;;;936622;151;27312;-75
2022/06/25 06:59:46;;;;;;;2.45;1.90;;;29.50;75.30;;;;;;936993;151;27399;-74
2022/06/25 07:02:12;;;;;;;2.75;1.90;;;29.80;73.30;;;;;;937466;150;27363;-75
2022/06/25 07:04:39;;;;;;;3.05;2.15;;;29.90;71.40;;;;;;937379;151;28504;-75
2022/06/25 07:07:05;;;;;;;4.35;1.77;;;30.00;69.30;;;;;;936750;151;27267;-75
2022/06/25 07:09:32;;;;;;;2.37;2.20;;;29.90;67.50;;;;;;936223;150;27408;-75
2022/06/25 07:11:58;;;;;;;2.25;2.08;;;29.90;67.10;;;;;;936179;151;27379;-75
2022/06/25 07:14:25;;;;;;;2.08;1.92;;;29.90;68.50;;;;;;935264;150;27397;-75
2022/06/25 07:16:51;;;;;;;1.98;1.80;;;29.90;69.10;;;;;;935862;151;27285;-75
2022/06/25 07:19:18;;;;;;;2.60;1.72;;;30.10;68.90;;;;;;933910;151;27516;-75
2022/06/25 07:21:45;;;;;;;1.57;1.47;;;30.20;67.50;;;;;;932821;151;27385;-75
2022/06/25 07:24:11;;;;;;;1.50;1.40;;;30.20;66.30;;;;;;931506;151;27720;-75
2022/06/25 07:26:38;;;;;;;1.87;1.65;;;30.20;64.90;;;;;;931878;151;27320;-75
2022/06/25 07:29:04;;;;;;;2.20;2.00;;;30.10;64.50;;;;;;931576;151;27370;-75
2022/06/25 07:31:31;;;;;;;2.08;1.80;;;30.00;64.90;;;;;;932217;151;27340;-75
2022/06/25 07:33:58;;;;;;;1.90;1.80;;;29.90;64.90;;;;;;931919;151;27797;-75
2022/06/25 07:36:24;;;;;;;2.92;1.80;;;29.80;64.60;;;;;;931845;151;27392;-75
2022/06/25 07:38:52;;;;;;;1.77;1.67;;;29.80;64.20;;;;;;932060;151;27327;-75
2022/06/25 07:41:17;;;;;;;2.25;1.77;;;29.80;64.00;;;;;;931210;151;27396;-75
2022/06/25 07:43:44;;;;;;;2.17;1.95;;;29.70;64.30;;;;;;930999;151;27530;-75
2022/06/25 07:46:11;;;;;;;1.72;1.62;;;29.70;64.20;;;;;;930244;151;27356;-76
2022/06/25 07:48:37;;;;;;;2.05;1.35;;;29.90;65.20;;;;;;927486;151;88100;-79
2022/06/25 07:53:48;;;;;;;2.47;1.47;;;30.50;66.90;;;;;;913480;152;84189;-75
2022/06/25 07:56:15;;;;;;;2.40;1.75;;;30.90;65.80;;;;;;918830;155;27441;-75
2022/06/25 07:58:41;;;;;;;2.42;1.50;;;31.30;64.20;;;;;;918017;153;27400;-76
2022/06/25 08:01:08;;;;;;;3.10;1.50;;;31.70;63.30;;;;;;917314;152;27393;-76
2022/06/25 08:03:35;;;;;;;1.52;1.40;;;31.90;61.90;;;;;;917807;155;27396;-74
2022/06/25 08:06:01;;;;;;;1.52;1.42;;;32.10;60.60;;;;;;916140;155;27373;-75
2022/06/25 08:08:28;;;;;;;1.70;1.60;;;32.20;59.50;;;;;;916447;155;27395;-74
2022/06/25 08:10:54;;;;;;;2.47;1.95;;;32.30;59.40;;;;;;916795;155;27910;-77
2022/06/25 08:13:21;;;;;;;1.72;1.42;;;32.50;60.40;;;;;;916377;152;27517;-74
2022/06/25 08:15:48;;;;;;;2.05;1.50;;;32.80;59.80;;;;;;916405;155;27374;-73
2022/06/25 08:18:14;;;;;;;2.02;1.45;;;33.00;58.90;;;;;;917473;155;27453;-73
2022/06/25 08:20:41;;;;;;;1.42;1.32;;;33.20;58.10;;;;;;916382;154;27382;-74
2022/06/25 08:23:07;;;;;;;1.70;1.60;;;33.40;58.00;;;;;;915710;155;27384;-72
2022/06/25 08:25:34;;;;;;;1.55;1.45;;;33.60;58.20;;;;;;918186;155;27456;-74
2022/06/25 08:28:01;;;;;;;1.40;1.30;;;33.90;57.80;;;;;;916136;155;27386;-75
2022/06/25 08:30:27;;;;;;;1.60;1.50;;;34.20;57.60;;;;;;917486;155;27354;-75
2022/06/25 08:32:55;;;;;;;1.95;1.20;;;34.70;57.60;;;;;;915880;155;26342;-76
2022/06/25 08:35:20;;;;;;;1.50;1.05;;;35.30;58.30;;;;;;916536;154;26332;-74
2022/06/25 08:37:47;;;;;;;4.90;1.40;;;36.10;58.70;;;;;;916169;152;26285;-74
2022/06/25 08:40:14;;;;;;;1.22;1.20;;;36.80;57.10;;;;;;915567;155;26265;-74
2022/06/25 08:42:40;;;;;;;2.67;1.50;;;37.50;55.00;;;;;;917973;155;26438;-75
2022/06/25 08:45:07;;;;;;;2.33;1.30;;;38.10;53.40;;;;;;915424;155;26309;-75
2022/06/25 08:47:33;;;;;;;1.40;1.30;;;38.50;52.30;;;;;;916674;155;27497;-75
2022/06/25 08:50:00;;;;;;;2.30;1.17;;;38.80;50.80;;;;;;916642;155;26423;-75
2022/06/25 08:52:27;;;;;;;1.95;1.52;;;39.00;49.70;;;;;;915672;155;27407;-74
2022/06/25 08:54:53;;;;;;;1.37;1.25;;;39.00;49.00;;;;;;924317;153;26301;-74
2022/06/25 08:57:20;;;;;;;3.17;1.70;;;38.90;48.20;;;;;;924795;153;26274;-74
2022/06/25 08:59:46;;;;;;;1.37;1.25;;;38.70;47.30;;;;;;925115;153;26394;-77
2022/06/25 09:02:13;;;;;;;2.08;1.35;;;38.50;47.00;;;;;;912405;153;27448;-74
2022/06/25 09:04:39;;;;;;;4.00;1.27;;;38.20;47.10;;;;;;912307;153;27338;-74
2022/06/25 09:07:15;;;;;;;1.40;1.30;;;37.90;46.90;;;;;;901353;158;26404;-75
2022/06/25 09:09:51;;;;;;;2.25;1.20;;;37.50;46.50;;;;;;923983;153;26337;-76
2022/06/25 09:12:17;;;;;;;1.52;1.45;;;37.40;47.20;;;;;;923270;153;26313;-74
2022/06/25 09:14:44;;;;;;;1.40;1.30;;;37.30;48.20;;;;;;924708;153;26369;-74
2022/06/25 09:17:14;;;;;;;2.15;1.05;;;37.50;48.80;;;;;;912104;153;26400;-74
2022/06/25 09:19:40;;;;;;;2.62;1.27;;;38.00;49.10;;;;;;910298;153;26293;-76
2022/06/25 09:22:06;;;;;;;2.27;1.62;;;38.50;48.90;;;;;;907029;155;26441;-75
2022/06/25 09:24:51;;;;;;;1.55;1.20;;;39.10;48.20;;;;;;898333;155;26364;-74
2022/06/25 09:27:17;;;;;;;1.42;1.02;;;39.70;47.40;;;;;;899295;157;26340;-74
2022/06/25 09:29:44;;;;;;;1.60;1.00;;;40.40;46.80;;;;;;923011;155;26280;-75
2022/06/25 09:32:10;;;;;;;1.35;1.20;;;41.00;45.70;;;;;;916821;154;26355;-74
2022/06/25 09:34:37;;;;;;;1.07;1.02;;;41.50;44.90;;;;;;913718;153;26645;-74
2022/06/25 09:37:19;;;;;;;2.72;1.00;;;42.00;44.20;;;;;;926317;153;26277;-74
2022/06/25 09:39:49;;;;;;;0.88;0.82;;;42.40;43.30;;;;;;924773;153;26374;-74
2022/06/25 09:42:30;;;;;;;1.67;1.20;;;42.80;42.60;;;;;;924430;153;26382;-74
2022/06/25 09:44:59;;;;;;;2.67;1.20;;;43.20;41.80;;;;;;924364;153;26949;-74
2022/06/25 09:47:26;;;;;;;1.90;0.80;;;43.50;40.00;;;;;;926100;151;26316;-75
2022/06/25 09:50:14;;;;;;;1.57;1.02;;;43.70;40.50;;;;;;924369;153;26380;-74
2022/06/25 09:52:55;;;;;;;1.07;0.88;;;43.80;39.90;;;;;;926662;153;26414;-74
2022/06/25 09:55:22;;;;;;;0.85;0.85;;;43.90;38.60;;;;;;925163;153;26309;-74
2022/06/25 09:57:48;;;;;;;2.15;1.15;;;43.80;38.40;;;;;;923894;151;26325;-74
2022/06/25 10:00:16;;;;;;;1.30;1.00;;;43.60;37.50;;;;;;926619;153;26302;-75
2022/06/25 10:02:42;;;;;;;1.30;1.20;;;43.20;37.10;;;;;;925186;153;26278;-75
2022/06/25 10:05:08;;;;;;;1.25;1.15;;;42.60;36.60;;;;;;923046;153;26389;-75
2022/06/25 10:10:20;;;;;;;1.32;1.00;;;41.40;37.40;;;;;;924580;151;27395;-76
2022/06/25 10:12:46;;;;;;;1.95;1.27;;;40.70;38.00;;;;;;925630;153;26303;-75
2022/06/25 10:15:13;;;;;;;1.32;1.20;;;40.20;38.50;;;;;;923548;153;26277;-75
2022/06/25 10:17:40;;;;;;;1.45;1.00;;;39.80;38.60;;;;;;926605;151;26265;-75
2022/06/25 10:20:06;;;;;;;2.75;1.35;;;39.50;38.70;;;;;;925886;153;26307;-75
2022/06/25 10:22:33;;;;;;;1.37;1.20;;;39.20;39.00;;;;;;926049;151;26345;-76
2022/06/25 10:25:00;;;;;;;1.37;1.10;;;38.90;39.30;;;;;;923243;153;27411;-75
2022/06/25 10:27:26;;;;;;;1.02;0.82;;;38.60;39.70;;;;;;924647;153;26269;-75
2022/06/25 10:29:53;;;;;;;0.85;0.85;;;38.40;40.10;;;;;;926677;151;27411;-76
2022/06/25 10:32:19;;;;;;;1.10;1.10;;;38.20;40.00;;;;;;923371;153;27438;-75
2022/06/25 10:34:51;;;;;;;1.62;1.30;;;38.10;40.10;;;;;;926002;153;27460;-75
2022/06/25 10:37:19;;;;;;;1.25;1.15;;;38.00;39.60;;;;;;924737;153;27421;-75
2022/06/25 10:39:44;;;;;;;1.02;1.00;;;37.80;39.30;;;;;;923651;153;27349;-75
2022/06/25 10:45:04;;;;;;;1.80;1.40;;;37.30;39.60;;;;;;924106;151;27492;-75
2022/06/25 10:47:49;;;;;;;1.10;1.00;;;36.90;39.30;;;;;;924095;153;27522;-75
2022/06/25 10:50:22;;;;;;;1.02;1.02;;;36.50;39.70;;;;;;925243;153;28034;-75
2022/06/25 10:53:03;;;;;;;1.20;1.10;;;36.20;40.20;;;;;;924407;153;27378;-75
2022/06/25 10:55:30;;;;;;;0.75;0.75;;;35.90;40.70;;;;;;925370;151;27408;-75
2022/06/25 10:58:18;;;;;;;0.82;0.82;;;35.70;41.00;;;;;;925293;153;27483;-75
2022/06/25 11:00:54;;;;;;;0.82;0.82;;;35.50;41.20;;;;;;924305;153;27515;-75
2022/06/25 11:03:32;;;;;;;4.60;1.17;;;35.50;41.40;;;;;;925585;151;27515;-75
2022/06/25 11:05:59;;;;;;;1.25;1.25;;;35.40;41.00;;;;;;926285;153;27380;-75
2022/06/25 11:08:34;;;;;;;1.25;1.10;;;35.20;41.00;;;;;;924686;151;27386;-75
2022/06/25 11:11:01;;;;;;;1.70;1.22;;;35.00;41.20;;;;;;923928;153;27344;-75
2022/06/25 11:13:28;;;;;;;1.95;0.85;;;34.80;41.80;;;;;;924234;153;27464;-75
2022/06/25 11:15:54;;;;;;;1.32;1.00;;;34.60;41.50;;;;;;923795;153;27473;-75
2022/06/25 11:18:21;;;;;;;0.82;0.80;;;34.50;41.30;;;;;;923745;153;27409;-75
2022/06/25 11:20:47;;;;;;;0.95;0.80;;;34.40;41.60;;;;;;925553;153;27398;-75
2022/06/25 11:23:14;;;;;;;0.93;0.93;;;34.20;42.20;;;;;;925446;153;27362;-75
2022/06/25 11:28:49;;;;;;;1.27;1.00;;;33.90;42.70;;;;;;926605;151;27468;-75
2022/06/25 11:31:16;;;;;;;1.60;1.00;;;33.80;42.70;;;;;;924101;153;28121;-75
2022/06/25 11:33:43;;;;;;;1.02;0.85;;;33.70;42.60;;;;;;924294;153;27486;-75
2022/06/25 11:36:09;;;;;;;0.90;0.90;;;33.60;42.40;;;;;;925426;153;27368;-76
2022/06/25 11:38:36;;;;;;;3.00;1.17;;;33.50;42.50;;;;;;926766;151;27986;-75
2022/06/25 11:41:02;;;;;;;0.93;0.88;;;33.40;42.90;;;;;;925468;153;27413;-75
2022/06/25 11:43:29;;;;;;;1.62;1.00;;;33.30;42.90;;;;;;924159;153;27497;-75
2022/06/25 11:45:55;;;;;;;0.85;0.85;;;33.30;43.40;;;;;;926767;153;27334;-75
2022/06/25 11:48:25;;;;;;;2.20;1.00;;;33.30;43.60;;;;;;925405;153;27332;-75
2022/06/25 11:50:54;;;;;;;1.42;0.72;;;33.30;43.60;;;;;;926367;153;27442;-76
2022/06/25 11:53:21;;;;;;;1.10;1.10;;;33.40;43.50;;;;;;925113;153;27505;-75
2022/06/25 11:56:00;;;;;;;0.95;0.78;;;33.40;43.40;;;;;;925856;151;27442;-74
2022/06/25 11:58:26;;;;;;;2.27;0.93;;;33.40;43.70;;;;;;911812;153;27432;-74
2022/06/25 12:00:56;;;;;;;0.90;0.90;;;33.50;43.70;;;;;;911643;153;27378;-74
2022/06/25 12:03:23;;;;;;;0.80;0.80;;;33.60;43.30;;;;;;913689;153;27503;-74
2022/06/25 12:05:49;;;;;;;0.85;0.82;;;33.60;43.20;;;;;;896429;156;28184;-74
2022/06/25 12:08:16;;;;;;;1.17;1.00;;;33.70;43.30;;;;;;910601;153;27498;-74
2022/06/25 12:10:42;;;;;;;1.92;0.90;;;33.70;43.10;;;;;;911719;155;27823;-74
2022/06/25 12:13:09;;;;;;;1.50;1.07;;;33.70;43.10;;;;;;897080;158;27467;-74
2022/06/25 12:15:36;;;;;;;1.20;1.10;;;33.70;43.00;;;;;;912203;153;27884;-74
2022/06/25 12:18:02;;;;;;;1.20;1.05;;;33.80;43.00;;;;;;912318;153;27486;-74
2022/06/25 12:20:29;;;;;;;1.52;0.95;;;33.80;43.00;;;;;;898530;158;27443;-74
2022/06/25 12:22:55;;;;;;;0.90;0.90;;;33.80;43.00;;;;;;909554;153;27484;-74
2022/06/25 12:25:31;;;;;;;1.10;1.00;;;33.70;42.80;;;;;;911883;155;27488;-74
2022/06/25 12:27:57;;;;;;;0.95;0.90;;;33.70;42.70;;;;;;913004;155;27429;-73
2022/06/25 12:30:24;;;;;;;1.25;0.82;;;33.70;42.70;;;;;;920313;154;27385;-74
2022/06/25 12:32:52;;;;;;;0.65;0.65;;;33.80;42.70;;;;;;919089;154;27355;-74
2022/06/25 12:35:17;;;;;;;1.85;1.02;;;33.80;42.80;;;;;;919885;151;28051;-74
2022/06/25 12:37:44;;;;;;;0.88;0.82;;;33.80;42.60;;;;;;919690;154;27403;-74
2022/06/25 12:40:10;;;;;;;1.20;1.10;;;33.80;42.40;;;;;;918959;151;27429;-74
2022/06/25 12:42:37;;;;;;;1.10;0.72;;;33.80;42.30;;;;;;921015;151;27371;-74
2022/06/25 12:45:03;;;;;;;0.80;0.80;;;33.80;42.30;;;;;;920299;154;27481;-74
2022/06/25 12:47:39;;;;;;;1.95;0.95;;;33.80;42.30;;;;;;921089;154;27430;-74
2022/06/25 12:50:06;;;;;;;1.12;0.80;;;33.80;42.00;;;;;;920755;153;27515;-74
2022/06/25 12:52:35;;;;;;;0.90;0.90;;;33.70;41.60;;;;;;920097;154;27454;-73
2022/06/25 12:55:02;;;;;;;2.17;0.93;;;33.60;41.70;;;;;;920717;154;27423;-74
2022/06/25 12:57:28;;;;;;;1.65;0.82;;;33.60;42.60;;;;;;923475;151;27527;-74
2022/06/25 12:59:55;;;;;;;1.65;0.90;;;33.50;42.00;;;;;;924668;151;27294;-74
2022/06/25 13:02:21;;;;;;;0.88;0.88;;;33.50;41.90;;;;;;925160;153;27931;-74
2022/06/25 13:04:48;;;;;;;0.90;0.60;;;33.40;42.00;;;;;;926507;153;27417;-74